Time;durP1;ratioP1;P1;durP2;ratioP2;P2;SDS_P1;SDS_P2;PMS_P1;PMS_P2;Temp;Humidity;BMP_temperature;BMP_pressure;BME280_temperature;BME280_humidity;BME280_pressure;Samples;Min_cycle;Max_cycle;Signal;HPM_P1;HPM_P2
2024/02/03 00:00:28;;;;;;;;;21.25;20.00;;;;;;;;4980416;28;45349;-72
2024/02/03 00:02:53;;;;;;;;;23.50;21.75;;;;;;;;4980344;28;45267;-72
2024/02/03 00:05:18;;;;;;;;;19.50;18.00;;;;;;;;4980838;28;45327;-72
2024/02/03 00:07:44;;;;;;;;;16.25;13.00;;;;;;;;4980827;28;45669;-72
2024/02/03 00:10:09;;;;;;;;;19.67;16.67;;;;;;;;4980358;28;45451;-72
2024/02/03 00:12:35;;;;;;;;;31.50;28.75;;;;;;;;4980378;28;45371;-72
2024/02/03 00:15:00;;;;;;;;;34.75;29.00;;;;;;;;4980550;28;45487;-72
2024/02/03 00:17:26;;;;;;;;;59.67;46.67;;;;;;;;4980702;28;45461;-72
2024/02/03 00:19:52;;;;;;;;;40.50;37.00;;;;;;;;4980319;28;46295;-72
2024/02/03 00:22:17;;;;;;;;;26.00;24.75;;;;;;;;4980349;28;45770;-72
2024/02/03 00:24:42;;;;;;;;;24.67;21.33;;;;;;;;4980750;28;45376;-72
2024/02/03 00:27:07;;;;;;;;;19.00;16.00;;;;;;;;4979940;28;45338;-72
2024/02/03 00:29:33;;;;;;;;;19.00;19.00;;;;;;;;4970511;28;45588;-72
2024/02/03 00:31:58;;;;;;;;;18.33;18.00;;;;;;;;4979440;28;45395;-72
2024/02/03 00:34:23;;;;;;;;;19.00;17.67;;;;;;;;4979861;28;45463;-72
2024/02/03 00:36:48;;;;;;;;;24.00;20.33;;;;;;;;4980219;28;45536;-72
2024/02/03 00:39:13;;;;;;;;;33.00;31.67;;;;;;;;4980473;28;46327;-72
2024/02/03 00:41:39;;;;;;;;;28.75;26.00;;;;;;;;4979841;28;45544;-72
2024/02/03 00:44:04;;;;;;;;;21.00;21.00;;;;;;;;4980485;28;45377;-72
2024/02/03 00:46:29;;;;;;;;;21.67;18.33;;;;;;;;4979998;28;45383;-72
2024/02/03 00:48:54;;;;;;;;;18.00;16.67;;;;;;;;4980263;28;45331;-72
2024/02/03 00:51:19;;;;;;;;;15.00;11.75;;;;;;;;4979931;28;45370;-72
2024/02/03 00:53:45;;;;;;;;;14.33;14.33;;;;;;;;4980440;28;45390;-72
2024/02/03 00:56:10;;;;;;;;;15.67;15.67;;;;;;;;4979943;28;45313;-72
2024/02/03 00:58:35;;;;;;;;;16.00;16.00;;;;;;;;4979948;28;45458;-72
2024/02/03 01:01:01;;;;;;;;;16.00;16.00;;;;;;;;4979752;28;45333;-72
2024/02/03 01:03:26;;;;;;;;;17.00;16.67;;;;;;;;4979009;28;45348;-72
2024/02/03 01:05:52;;;;;;;;;19.00;18.00;;;;;;;;4979558;28;45280;-73
2024/02/03 01:08:17;;;;;;;;;7.25;7.25;;;;;;;;4979047;28;45420;-72
2024/02/03 01:10:42;;;;;;;;;19.00;18.67;;;;;;;;4973706;28;45392;-72
2024/02/03 01:13:07;;;;;;;;;22.33;19.33;;;;;;;;4979886;28;45339;-72
2024/02/03 01:15:33;;;;;;;;;17.50;15.50;;;;;;;;4979671;28;45911;-72
2024/02/03 01:17:58;;;;;;;;;16.67;16.67;;;;;;;;4979664;28;45294;-72
2024/02/03 01:20:23;;;;;;;;;13.00;13.00;;;;;;;;4979552;28;45394;-72
2024/02/03 01:22:48;;;;;;;;;16.00;14.25;;;;;;;;4962237;28;45488;-72
2024/02/03 01:25:13;;;;;;;;;17.67;15.33;;;;;;;;4979629;28;45392;-72
2024/02/03 01:27:39;;;;;;;;;13.67;12.00;;;;;;;;4959012;28;46325;-72
2024/02/03 01:30:04;;;;;;;;;15.33;12.67;;;;;;;;4979493;28;45317;-72
2024/02/03 01:32:29;;;;;;;;;19.25;19.00;;;;;;;;4973716;28;45370;-72
2024/02/03 01:34:54;;;;;;;;;18.00;16.00;;;;;;;;4972353;28;45524;-72
2024/02/03 01:37:20;;;;;;;;;25.33;21.00;;;;;;;;4979304;28;45410;-72
2024/02/03 01:39:45;;;;;;;;;16.75;15.50;;;;;;;;4979270;28;45359;-72
2024/02/03 01:42:10;;;;;;;;;13.00;12.67;;;;;;;;4979319;28;45362;-72
2024/02/03 01:44:36;;;;;;;;;14.00;11.67;;;;;;;;4979618;28;45285;-72
2024/02/03 01:47:01;;;;;;;;;10.75;9.50;;;;;;;;4979130;28;45841;-72
2024/02/03 01:49:27;;;;;;;;;14.25;14.25;;;;;;;;4979311;28;46711;-72
2024/02/03 01:51:53;;;;;;;;;10.25;10.25;;;;;;;;4979452;28;45397;-72
2024/02/03 01:54:18;;;;;;;;;15.00;13.00;;;;;;;;4979433;28;45366;-72
2024/02/03 01:56:44;;;;;;;;;14.25;13.50;;;;;;;;4978998;28;45896;-72
2024/02/03 01:59:09;;;;;;;;;16.50;14.00;;;;;;;;4979233;28;45452;-72
2024/02/03 02:01:35;;;;;;;;;19.25;15.50;;;;;;;;4979309;28;45328;-72
2024/02/03 02:04:00;;;;;;;;;30.75;29.75;;;;;;;;4977835;28;45345;-72
2024/02/03 02:06:25;;;;;;;;;18.67;14.00;;;;;;;;4978748;28;45463;-72
2024/02/03 02:08:50;;;;;;;;;16.67;13.67;;;;;;;;4973746;28;45347;-72
2024/02/03 02:11:16;;;;;;;;;14.25;11.50;;;;;;;;4978194;28;45453;-72
2024/02/03 02:13:41;;;;;;;;;15.00;12.25;;;;;;;;4978916;28;45295;-72
2024/02/03 02:16:06;;;;;;;;;9.33;9.00;;;;;;;;4978954;28;45382;-72
2024/02/03 02:18:31;;;;;;;;;11.67;11.67;;;;;;;;4979112;28;45294;-72
2024/02/03 02:20:57;;;;;;;;;10.00;10.00;;;;;;;;4961361;28;45367;-72
2024/02/03 02:23:22;;;;;;;;;12.00;11.50;;;;;;;;4981775;28;45489;-72
2024/02/03 02:25:48;;;;;;;;;11.00;11.00;;;;;;;;4946366;28;46898;-72
2024/02/03 02:28:13;;;;;;;;;12.67;12.00;;;;;;;;4948311;28;45375;-72
2024/02/03 02:30:38;;;;;;;;;12.67;11.67;;;;;;;;4981213;28;45234;-72
2024/02/03 02:33:03;;;;;;;;;13.50;10.25;;;;;;;;4971773;28;45602;-72
2024/02/03 02:35:28;;;;;;;;;15.67;10.67;;;;;;;;4979279;28;46048;-72
2024/02/03 02:37:53;;;;;;;;;11.00;10.00;;;;;;;;4982145;28;45459;-72
2024/02/03 02:40:19;;;;;;;;;13.00;12.33;;;;;;;;4982327;28;45285;-72
2024/02/03 02:42:44;;;;;;;;;7.25;6.75;;;;;;;;4982056;28;45415;-72
2024/02/03 02:45:09;;;;;;;;;13.67;10.67;;;;;;;;4982029;28;45667;-72
2024/02/03 02:47:35;;;;;;;;;10.75;10.75;;;;;;;;4981928;28;45377;-72
2024/02/03 02:50:00;;;;;;;;;18.25;16.25;;;;;;;;4981791;28;45305;-72
2024/02/03 02:52:25;;;;;;;;;13.00;13.00;;;;;;;;4982125;28;45361;-72
2024/02/03 02:54:50;;;;;;;;;16.00;13.00;;;;;;;;4981887;28;45526;-72
2024/02/03 02:57:15;;;;;;;;;9.33;7.33;;;;;;;;4981536;28;45551;-72
2024/02/03 02:59:41;;;;;;;;;9.75;9.75;;;;;;;;4981817;28;45394;-72
2024/02/03 03:02:06;;;;;;;;;11.00;9.50;;;;;;;;4961693;28;45591;-72
2024/02/03 03:04:31;;;;;;;;;10.00;10.00;;;;;;;;4978831;28;45987;-72
2024/02/03 03:06:56;;;;;;;;;10.00;10.00;;;;;;;;4981528;28;45533;-72
2024/02/03 03:09:22;;;;;;;;;10.00;10.00;;;;;;;;4976150;28;45519;-72
2024/02/03 03:11:47;;;;;;;;;14.00;10.00;;;;;;;;4981590;28;45360;-72
2024/02/03 03:14:12;;;;;;;;;12.00;8.67;;;;;;;;4981402;28;46379;-72
2024/02/03 03:16:37;;;;;;;;;13.33;10.33;;;;;;;;4981592;28;45365;-72
2024/02/03 03:19:02;;;;;;;;;13.00;11.00;;;;;;;;4981758;28;45308;-72
2024/02/03 03:21:28;;;;;;;;;14.33;12.33;;;;;;;;4981415;28;45453;-72
2024/02/03 03:23:53;;;;;;;;;12.67;11.33;;;;;;;;4981475;28;45494;-72
2024/02/03 03:26:18;;;;;;;;;13.00;11.00;;;;;;;;4981472;28;45383;-72
2024/02/03 03:28:43;;;;;;;;;15.33;10.33;;;;;;;;4973327;28;45392;-72
2024/02/03 03:31:09;;;;;;;;;9.00;9.00;;;;;;;;4981543;28;45451;-72
2024/02/03 03:33:34;;;;;;;;;11.00;9.00;;;;;;;;4967169;28;45468;-72
2024/02/03 03:35:59;;;;;;;;;9.00;8.33;;;;;;;;4963574;28;45366;-72
2024/02/03 03:38:24;;;;;;;;;9.50;6.75;;;;;;;;4963863;28;45387;-72
2024/02/03 03:40:49;;;;;;;;;9.33;9.33;;;;;;;;4981390;28;45271;-72
2024/02/03 03:43:15;;;;;;;;;11.67;10.00;;;;;;;;4981034;28;45581;-72
2024/02/03 03:45:40;;;;;;;;;11.00;11.00;;;;;;;;4981173;28;45286;-72
2024/02/03 03:48:05;;;;;;;;;14.00;11.00;;;;;;;;4981419;28;45285;-72
2024/02/03 03:50:30;;;;;;;;;13.50;10.75;;;;;;;;4980898;28;45473;-72
2024/02/03 03:52:56;;;;;;;;;5.00;4.33;;;;;;;;4963352;28;48161;-72
2024/02/03 03:55:21;;;;;;;;;10.00;10.00;;;;;;;;4981127;28;45355;-72
2024/02/03 03:57:46;;;;;;;;;10.00;10.00;;;;;;;;4980745;28;45459;-72
2024/02/03 04:00:12;;;;;;;;;7.00;7.00;;;;;;;;4980724;28;45678;-72
2024/02/03 04:02:39;;;;;;;;;9.00;6.00;;;;;;;;4979259;28;46375;-72
2024/02/03 04:05:04;;;;;;;;;12.50;10.25;;;;;;;;4980711;28;45624;-72
2024/02/03 04:07:29;;;;;;;;;6.25;6.25;;;;;;;;4980772;28;45374;-72
2024/02/03 04:09:55;;;;;;;;;5.50;4.50;;;;;;;;4974233;28;45693;-72
2024/02/03 04:12:20;;;;;;;;;11.00;9.00;;;;;;;;4980542;28;46467;-72
2024/02/03 04:14:48;;;;;;;;;10.33;9.00;;;;;;;;4980378;28;45314;-73
2024/02/03 04:17:14;;;;;;;;;10.00;10.00;;;;;;;;4980737;28;45489;-72
2024/02/03 04:19:39;;;;;;;;;11.25;9.25;;;;;;;;4963050;28;45812;-72
2024/02/03 04:22:05;;;;;;;;;7.50;5.25;;;;;;;;4962826;28;47509;-72
2024/02/03 04:24:30;;;;;;;;;10.00;8.00;;;;;;;;4980681;28;45301;-72
2024/02/03 04:26:55;;;;;;;;;6.67;6.67;;;;;;;;4962987;28;45335;-72
2024/02/03 04:29:20;;;;;;;;;9.33;9.33;;;;;;;;4974379;28;45290;-72
2024/02/03 04:31:45;;;;;;;;;5.33;4.67;;;;;;;;4946480;28;46947;-72
2024/02/03 04:34:11;;;;;;;;;6.33;6.33;;;;;;;;4949679;28;45461;-72
2024/02/03 04:36:36;;;;;;;;;7.50;7.50;;;;;;;;4953464;28;45346;-72
2024/02/03 04:39:01;;;;;;;;;9.00;9.00;;;;;;;;4980264;28;45433;-72
2024/02/03 04:41:26;;;;;;;;;9.00;9.00;;;;;;;;4980082;28;46205;-72
2024/02/03 04:43:52;;;;;;;;;9.33;7.33;;;;;;;;4943336;28;45486;-72
2024/02/03 04:46:17;;;;;;;;;7.33;7.33;;;;;;;;4954928;28;46788;-72
2024/02/03 04:48:43;;;;;;;;;7.00;6.75;;;;;;;;4980287;28;45252;-72
2024/02/03 04:51:08;;;;;;;;;6.00;5.00;;;;;;;;4962425;28;46310;-72
2024/02/03 04:53:34;;;;;;;;;4.67;3.67;;;;;;;;4943452;28;45846;-72
2024/02/03 04:55:59;;;;;;;;;6.75;5.00;;;;;;;;4973698;28;45337;-73
2024/02/03 04:58:24;;;;;;;;;6.00;5.33;;;;;;;;4979765;28;45570;-72
2024/02/03 05:00:49;;;;;;;;;7.33;6.33;;;;;;;;4962356;28;47239;-72
2024/02/03 05:03:15;;;;;;;;;5.00;5.00;;;;;;;;4978719;28;45787;-72
2024/02/03 05:05:40;;;;;;;;;4.00;3.00;;;;;;;;4979833;28;45478;-72
2024/02/03 05:08:05;;;;;;;;;6.33;5.00;;;;;;;;4979657;28;45393;-72
2024/02/03 05:10:30;;;;;;;;;6.00;5.00;;;;;;;;4973002;28;46353;-72
2024/02/03 05:12:55;;;;;;;;;3.67;3.67;;;;;;;;4978576;28;45501;-72
2024/02/03 05:15:21;;;;;;;;;3.00;3.00;;;;;;;;4972722;28;45645;-72
2024/02/03 05:17:46;;;;;;;;;3.33;3.33;;;;;;;;4979787;28;45527;-72
2024/02/03 05:20:11;;;;;;;;;3.67;3.00;;;;;;;;4979620;28;46106;-72
2024/02/03 05:22:36;;;;;;;;;2.00;2.00;;;;;;;;4961989;28;45375;-72
2024/02/03 05:25:02;;;;;;;;;1.25;1.00;;;;;;;;4979876;28;45565;-72
2024/02/03 05:27:27;;;;;;;;;1.50;1.50;;;;;;;;4979518;28;45410;-72
2024/02/03 05:29:53;;;;;;;;;1.00;1.00;;;;;;;;4979258;28;45466;-72
2024/02/03 05:32:18;;;;;;;;;1.00;1.00;;;;;;;;4943274;28;45490;-72
2024/02/03 05:34:43;;;;;;;;;1.67;1.00;;;;;;;;4970840;28;45417;-72
2024/02/03 05:37:09;;;;;;;;;5.75;3.50;;;;;;;;4979471;28;45428;-72
2024/02/03 05:39:35;;;;;;;;;2.50;2.00;;;;;;;;4979526;28;46949;-72
2024/02/03 05:42:00;;;;;;;;;3.67;2.67;;;;;;;;4944305;28;45355;-72
2024/02/03 05:44:25;;;;;;;;;4.00;3.33;;;;;;;;4971000;28;45452;-72
2024/02/03 05:46:50;;;;;;;;;5.00;5.00;;;;;;;;4979328;28;45335;-72
2024/02/03 05:49:15;;;;;;;;;6.00;6.00;;;;;;;;4979249;28;45510;-72
2024/02/03 05:51:40;;;;;;;;;5.33;5.00;;;;;;;;4979447;28;45253;-72
2024/02/03 05:54:06;;;;;;;;;9.00;7.33;;;;;;;;4979570;28;45371;-72
2024/02/03 05:56:35;;;;;;;;;9.33;9.00;;;;;;;;4979272;28;45289;-72
2024/02/03 05:59:00;;;;;;;;;12.50;10.50;;;;;;;;4964658;28;46283;-72
2024/02/03 06:01:25;;;;;;;;;7.00;7.00;;;;;;;;4982302;28;45483;-72
2024/02/03 06:03:50;;;;;;;;;9.00;9.00;;;;;;;;4977083;28;45474;-72
2024/02/03 06:06:15;;;;;;;;;5.33;5.00;;;;;;;;4964851;28;45365;-72
2024/02/03 06:08:41;;;;;;;;;5.00;5.00;;;;;;;;4978391;28;46368;-72
2024/02/03 06:11:06;;;;;;;;;7.25;3.75;;;;;;;;4979748;28;45459;-72
2024/02/03 06:13:31;;;;;;;;;4.67;4.00;;;;;;;;4964992;28;45580;-72
2024/02/03 06:15:57;;;;;;;;;2.00;2.00;;;;;;;;4964734;28;45759;-72
2024/02/03 06:18:22;;;;;;;;;2.00;1.00;;;;;;;;4982337;28;45312;-72
2024/02/03 06:20:47;;;;;;;;;6.00;5.00;;;;;;;;4982118;28;45427;-72
2024/02/03 06:23:12;;;;;;;;;12.50;9.50;;;;;;;;4964903;28;45468;-72
2024/02/03 06:25:38;;;;;;;;;9.00;6.67;;;;;;;;4982270;28;45436;-72
2024/02/03 06:28:03;;;;;;;;;9.00;9.00;;;;;;;;4964625;28;47636;-72
2024/02/03 06:30:29;;;;;;;;;9.25;7.75;;;;;;;;4982285;28;45302;-72
2024/02/03 06:32:54;;;;;;;;;6.25;6.00;;;;;;;;4953605;28;45431;-72
2024/02/03 06:35:19;;;;;;;;;5.67;4.33;;;;;;;;4978249;28;45305;-72
2024/02/03 06:37:44;;;;;;;;;4.67;3.33;;;;;;;;4982184;28;45365;-72
2024/02/03 06:40:10;;;;;;;;;4.33;4.33;;;;;;;;4981882;28;45300;-72
2024/02/03 06:42:35;;;;;;;;;5.75;5.75;;;;;;;;4981884;28;45315;-72
2024/02/03 06:45:00;;;;;;;;;11.00;10.67;;;;;;;;4981949;28;45277;-72
2024/02/03 06:47:25;;;;;;;;;12.33;11.00;;;;;;;;4981886;28;46155;-72
2024/02/03 06:49:50;;;;;;;;;11.00;10.00;;;;;;;;4981669;28;45599;-72
2024/02/03 06:52:16;;;;;;;;;10.67;10.33;;;;;;;;4982251;28;45318;-72
2024/02/03 06:54:41;;;;;;;;;7.67;7.67;;;;;;;;4964415;28;45527;-72
2024/02/03 06:57:06;;;;;;;;;6.00;6.00;;;;;;;;4981475;28;46660;-72
2024/02/03 06:59:31;;;;;;;;;7.33;7.33;;;;;;;;4964357;28;45354;-72
2024/02/03 07:01:56;;;;;;;;;8.33;8.33;;;;;;;;4963180;28;45380;-72
2024/02/03 07:04:21;;;;;;;;;6.00;4.33;;;;;;;;4977051;28;45609;-72
2024/02/03 07:06:47;;;;;;;;;8.67;6.00;;;;;;;;4981811;28;45428;-72
2024/02/03 07:09:12;;;;;;;;;12.67;9.67;;;;;;;;4974037;28;45306;-72
2024/02/03 07:11:37;;;;;;;;;7.75;6.50;;;;;;;;4981438;28;45285;-73
2024/02/03 07:14:02;;;;;;;;;6.00;6.00;;;;;;;;4973378;28;45315;-72
2024/02/03 07:16:27;;;;;;;;;9.33;7.33;;;;;;;;4955528;28;47207;-72
2024/02/03 07:18:53;;;;;;;;;5.00;5.00;;;;;;;;4976817;28;45476;-72
2024/02/03 07:21:18;;;;;;;;;7.33;7.33;;;;;;;;4955539;28;45288;-72
2024/02/03 07:23:43;;;;;;;;;7.33;7.33;;;;;;;;4976724;28;45286;-73
2024/02/03 07:26:08;;;;;;;;;5.00;5.00;;;;;;;;4981417;28;46104;-72
2024/02/03 07:28:34;;;;;;;;;6.00;6.00;;;;;;;;4981445;28;45421;-73
2024/02/03 07:30:59;;;;;;;;;5.33;5.33;;;;;;;;4964124;28;45461;-72
2024/02/03 07:33:24;;;;;;;;;5.67;4.67;;;;;;;;4968254;28;45286;-72
2024/02/03 07:35:49;;;;;;;;;4.67;3.00;;;;;;;;4981191;28;46026;-72
2024/02/03 07:38:14;;;;;;;;;7.33;6.67;;;;;;;;4981391;28;45294;-72
2024/02/03 07:40:39;;;;;;;;;7.33;7.33;;;;;;;;4981326;28;45479;-72
2024/02/03 07:43:04;;;;;;;;;12.00;11.67;;;;;;;;4981163;28;45594;-72
2024/02/03 07:45:30;;;;;;;;;9.00;7.00;;;;;;;;4981175;28;45682;-72
2024/02/03 07:47:55;;;;;;;;;6.67;6.67;;;;;;;;4981094;28;45380;-72
2024/02/03 07:50:21;;;;;;;;;9.67;5.00;;;;;;;;4963648;28;45433;-72
2024/02/03 07:52:46;;;;;;;;;5.00;5.00;;;;;;;;4963450;28;45467;-72
2024/02/03 07:55:11;;;;;;;;;7.33;7.33;;;;;;;;4981237;28;45568;-72
2024/02/03 07:57:36;;;;;;;;;7.33;6.33;;;;;;;;4980528;28;45644;-72
2024/02/03 08:00:02;;;;;;;;;7.33;5.00;;;;;;;;4963758;28;45649;-72
2024/02/03 08:02:27;;;;;;;;;5.50;5.00;;;;;;;;4975721;28;45550;-72
2024/02/03 08:04:53;;;;;;;;;7.33;7.33;;;;;;;;4980723;28;45380;-72
2024/02/03 08:07:19;;;;;;;;;10.25;6.00;;;;;;;;4951733;28;45741;-72
2024/02/03 08:09:44;;;;;;;;;12.67;11.67;;;;;;;;4980646;28;45451;-72
2024/02/03 08:12:09;;;;;;;;;13.00;11.00;;;;;;;;4979979;28;45680;-73
2024/02/03 08:14:34;;;;;;;;;9.50;9.50;;;;;;;;4972687;28;46556;-65
2024/02/03 08:16:59;;;;;;;;;10.33;6.67;;;;;;;;4973887;28;45601;-65
2024/02/03 08:19:25;;;;;;;;;10.00;7.00;;;;;;;;4947399;28;45402;-64
2024/02/03 08:21:50;;;;;;;;;6.00;5.33;;;;;;;;4974662;28;45459;-65
2024/02/03 08:24:15;;;;;;;;;8.33;7.00;;;;;;;;4968640;28;46195;-65
2024/02/03 08:26:40;;;;;;;;;9.33;9.33;;;;;;;;4968991;28;45448;-65
2024/02/03 08:29:06;;;;;;;;;7.75;7.00;;;;;;;;4969510;28;45483;-65
2024/02/03 08:31:31;;;;;;;;;12.00;10.00;;;;;;;;4969109;28;47535;-65
2024/02/03 08:33:57;;;;;;;;;11.67;9.00;;;;;;;;4969868;28;47241;-65
2024/02/03 08:36:22;;;;;;;;;10.50;7.00;;;;;;;;4956933;28;46859;-65
2024/02/03 08:38:48;;;;;;;;;9.50;7.00;;;;;;;;4967055;28;45550;-65
2024/02/03 08:41:13;;;;;;;;;5.50;4.50;;;;;;;;4971302;28;45345;-64
2024/02/03 08:43:38;;;;;;;;;6.67;6.67;;;;;;;;4976851;28;46276;-65
2024/02/03 08:46:03;;;;;;;;;9.00;8.25;;;;;;;;4976333;28;45295;-65
2024/02/03 08:48:29;;;;;;;;;4.67;4.67;;;;;;;;4949351;28;45404;-65
2024/02/03 08:50:54;;;;;;;;;2.33;1.00;;;;;;;;4959739;28;45576;-66
2024/02/03 08:53:19;;;;;;;;;2.75;1.75;;;;;;;;4977207;28;45691;-65
2024/02/03 08:55:45;;;;;;;;;1.75;1.00;;;;;;;;4961469;28;45977;-65
2024/02/03 08:58:10;;;;;;;;;2.50;2.50;;;;;;;;4978354;28;45540;-65
2024/02/03 09:00:35;;;;;;;;;1.00;1.00;;;;;;;;4960253;28;45287;-66
2024/02/03 09:03:01;;;;;;;;;1.00;1.00;;;;;;;;4979418;28;45518;-66
2024/02/03 09:05:26;;;;;;;;;1.00;1.00;;;;;;;;4978925;28;45595;-66
2024/02/03 09:07:52;;;;;;;;;2.00;1.00;;;;;;;;4961983;28;45453;-66
2024/02/03 09:10:17;;;;;;;;;0.50;0.50;;;;;;;;4977822;28;46672;-65
2024/02/03 09:12:43;;;;;;;;;1.75;0.25;;;;;;;;4975687;28;45377;-65
2024/02/03 09:15:08;;;;;;;;;0.50;0.50;;;;;;;;4955253;28;46039;-65
2024/02/03 09:17:33;;;;;;;;;1.00;1.00;;;;;;;;4961559;28;45609;-72
2024/02/03 09:19:58;;;;;;;;;0.67;0.67;;;;;;;;4961614;28;45600;-73
2024/02/03 09:22:24;;;;;;;;;0.00;0.00;;;;;;;;4951054;28;46795;-69
2024/02/03 09:24:49;;;;;;;;;3.00;0.00;;;;;;;;4959264;28;45966;-72
2024/02/03 09:27:14;;;;;;;;;0.67;0.67;;;;;;;;4976569;28;45465;-71
2024/02/03 09:29:42;;;;;;;;;0.00;0.00;;;;;;;;4958273;28;45538;-70
2024/02/03 09:32:08;;;;;;;;;1.50;0.00;;;;;;;;4978510;28;46217;-70
2024/02/03 09:34:33;;;;;;;;;0.00;0.00;;;;;;;;4979235;28;45559;-70
2024/02/03 09:36:59;;;;;;;;;0.00;0.00;;;;;;;;4979811;28;45421;-70
2024/02/03 09:39:24;;;;;;;;;1.00;0.00;;;;;;;;4979491;28;45397;-70
2024/02/03 09:41:49;;;;;;;;;0.00;0.00;;;;;;;;4979569;28;45510;-70
2024/02/03 09:44:14;;;;;;;;;0.75;0.75;;;;;;;;4976262;28;45247;-70
2024/02/03 09:46:40;;;;;;;;;0.00;0.00;;;;;;;;4962254;28;45548;-70
2024/02/03 09:49:05;;;;;;;;;1.00;0.75;;;;;;;;4961608;28;45733;-70
2024/02/03 09:51:31;;;;;;;;;0.33;0.33;;;;;;;;4979555;28;45526;-70
2024/02/03 09:53:57;;;;;;;;;0.00;0.00;;;;;;;;4979238;28;45400;-70
2024/02/03 09:56:22;;;;;;;;;0.00;0.00;;;;;;;;4979259;28;45376;-70
2024/02/03 09:58:47;;;;;;;;;0.00;0.00;;;;;;;;4978146;28;45245;-70
2024/02/03 10:01:13;;;;;;;;;1.00;0.00;;;;;;;;4977720;28;45444;-70
2024/02/03 10:03:41;;;;;;;;;0.75;0.00;;;;;;;;4968740;28;45390;-70
2024/02/03 10:06:09;;;;;;;;;0.00;0.00;;;;;;;;4976676;28;45379;-70
2024/02/03 10:08:35;;;;;;;;;0.00;0.00;;;;;;;;4979144;28;45848;-70
2024/02/03 10:11:00;;;;;;;;;0.00;0.00;;;;;;;;4961350;28;45518;-71
2024/02/03 10:13:26;;;;;;;;;0.00;0.00;;;;;;;;4955687;28;45325;-71
2024/02/03 10:16:01;;;;;;;;;0.00;0.00;;;;;;;;4960576;28;45401;-71
2024/02/03 10:18:27;;;;;;;;;0.00;0.00;;;;;;;;4961638;28;45347;-70
2024/02/03 10:20:52;;;;;;;;;0.00;0.00;;;;;;;;4978697;28;45683;-70
2024/02/03 10:23:17;;;;;;;;;0.25;0.00;;;;;;;;4961454;28;45462;-70
2024/02/03 10:25:44;;;;;;;;;2.00;0.00;;;;;;;;4979000;28;45416;-70
2024/02/03 10:28:09;;;;;;;;;0.00;0.00;;;;;;;;4970120;28;45389;-70
2024/02/03 10:30:35;;;;;;;;;0.00;0.00;;;;;;;;4978651;28;46030;-70
2024/02/03 10:33:01;;;;;;;;;1.00;0.50;;;;;;;;4951210;28;45720;-70
2024/02/03 10:35:28;;;;;;;;;0.00;0.00;;;;;;;;4977387;28;45246;-70
2024/02/03 10:37:53;;;;;;;;;1.50;0.00;;;;;;;;4961282;28;45633;-70
2024/02/03 10:40:18;;;;;;;;;0.00;0.00;;;;;;;;4978694;28;45560;-70
2024/02/03 10:42:45;;;;;;;;;0.00;0.00;;;;;;;;4961617;28;45500;-70
2024/02/03 10:45:11;;;;;;;;;0.00;0.00;;;;;;;;4969735;28;45337;-70
2024/02/03 10:47:38;;;;;;;;;1.00;0.00;;;;;;;;4982122;28;45614;-70
2024/02/03 10:50:05;;;;;;;;;0.00;0.00;;;;;;;;4981869;28;47061;-70
2024/02/03 10:52:30;;;;;;;;;0.00;0.00;;;;;;;;4982073;28;45355;-70
2024/02/03 10:54:56;;;;;;;;;0.00;0.00;;;;;;;;4981529;28;45554;-70
2024/02/03 10:57:24;;;;;;;;;0.50;0.00;;;;;;;;4981238;28;45425;-70
2024/02/03 10:59:49;;;;;;;;;1.50;0.00;;;;;;;;4980836;28;45350;-70
2024/02/03 11:02:18;;;;;;;;;1.00;0.00;;;;;;;;4964074;28;45827;-70
2024/02/03 11:04:46;;;;;;;;;0.50;0.00;;;;;;;;4968649;28;45585;-70
2024/02/03 11:07:19;;;;;;;;;0.00;0.00;;;;;;;;4981639;28;45495;-70
2024/02/03 11:09:45;;;;;;;;;0.00;0.00;;;;;;;;4974698;28;46527;-70
2024/02/03 11:12:11;;;;;;;;;0.00;0.00;;;;;;;;4981636;28;45392;-70
2024/02/03 11:14:36;;;;;;;;;0.00;0.00;;;;;;;;4980643;28;45377;-71
2024/02/03 11:17:05;;;;;;;;;0.00;0.00;;;;;;;;4980863;28;45542;-71
2024/02/03 11:19:34;;;;;;;;;0.00;0.00;;;;;;;;4963826;28;46432;-71
2024/02/03 11:22:00;;;;;;;;;0.00;0.00;;;;;;;;4981496;28;45396;-71
2024/02/03 11:24:26;;;;;;;;;0.25;0.00;;;;;;;;4981775;28;45420;-71
2024/02/03 11:27:07;;;;;;;;;0.00;0.00;;;;;;;;4979095;28;45340;-72
2024/02/03 11:29:33;;;;;;;;;0.00;0.00;;;;;;;;4980137;28;45633;-73
2024/02/03 11:32:03;;;;;;;;;0.00;0.00;;;;;;;;4963364;28;45418;-73
2024/02/03 11:34:30;;;;;;;;;1.00;0.00;;;;;;;;4980445;28;45286;-73
2024/02/03 11:36:55;;;;;;;;;0.00;0.00;;;;;;;;4974551;28;45365;-71
2024/02/03 11:39:31;;;;;;;;;1.00;0.75;;;;;;;;4980620;28;47122;-71
2024/02/03 11:41:56;;;;;;;;;0.00;0.00;;;;;;;;4981117;28;45370;-71
2024/02/03 11:44:22;;;;;;;;;1.00;0.00;;;;;;;;4981333;28;45971;-71
2024/02/03 11:46:47;;;;;;;;;0.00;0.00;;;;;;;;4978794;28;45724;-71
2024/02/03 11:49:13;;;;;;;;;2.00;0.00;;;;;;;;4977932;28;46052;-71
2024/02/03 11:51:38;;;;;;;;;1.00;0.00;;;;;;;;4981161;28;45316;-71
2024/02/03 11:54:04;;;;;;;;;0.00;0.00;;;;;;;;4980926;28;45529;-71
2024/02/03 11:56:29;;;;;;;;;0.50;0.25;;;;;;;;4979976;28;45459;-71
2024/02/03 11:58:55;;;;;;;;;1.00;0.00;;;;;;;;4980461;28;45628;-71
2024/02/03 12:01:20;;;;;;;;;2.00;2.00;;;;;;;;4980834;28;45317;-73
2024/02/03 12:03:46;;;;;;;;;1.33;1.33;;;;;;;;4962690;28;45725;-70
2024/02/03 12:06:11;;;;;;;;;0.00;0.00;;;;;;;;4975468;28;45734;-72
2024/02/03 12:08:36;;;;;;;;;0.25;0.00;;;;;;;;4958395;28;48062;-72
2024/02/03 12:11:02;;;;;;;;;3.33;1.00;;;;;;;;4976444;28;45365;-71
2024/02/03 12:13:34;;;;;;;;;0.00;0.00;;;;;;;;4966872;28;45686;-72
2024/02/03 12:15:59;;;;;;;;;1.00;0.00;;;;;;;;4976115;28;45776;-71
2024/02/03 12:18:27;;;;;;;;;1.00;0.00;;;;;;;;4976891;28;46178;-71
2024/02/03 12:20:53;;;;;;;;;1.00;1.00;;;;;;;;4976842;28;45672;-72
2024/02/03 12:23:18;;;;;;;;;0.50;0.00;;;;;;;;4975758;28;45396;-72
2024/02/03 12:25:43;;;;;;;;;0.00;0.00;;;;;;;;4976793;28;45401;-72
2024/02/03 12:28:08;;;;;;;;;0.00;0.00;;;;;;;;4935324;28;47045;-71
2024/02/03 12:30:37;;;;;;;;;0.00;0.00;;;;;;;;4954647;28;45731;-71
2024/02/03 12:33:02;;;;;;;;;0.75;0.75;;;;;;;;4943625;28;45593;-71
2024/02/03 12:35:28;;;;;;;;;2.00;1.00;;;;;;;;4975272;28;45719;-71
2024/02/03 12:37:53;;;;;;;;;2.00;1.00;;;;;;;;4975324;28;45895;-71
2024/02/03 12:40:18;;;;;;;;;1.00;1.00;;;;;;;;4977027;28;45888;-66
2024/02/03 12:42:43;;;;;;;;;0.25;0.25;;;;;;;;4973529;28;45349;-67
2024/02/03 12:45:09;;;;;;;;;1.00;1.00;;;;;;;;4978158;28;45569;-67
2024/02/03 12:47:34;;;;;;;;;3.50;1.00;;;;;;;;4980111;28;45430;-67
2024/02/03 12:49:59;;;;;;;;;1.00;1.00;;;;;;;;4979922;28;45369;-67
2024/02/03 12:52:25;;;;;;;;;0.67;0.67;;;;;;;;4980490;28;45321;-66
2024/02/03 12:54:50;;;;;;;;;2.00;1.00;;;;;;;;4980133;28;45548;-67
2024/02/03 12:57:15;;;;;;;;;1.00;1.00;;;;;;;;4979574;28;45947;-67
2024/02/03 12:59:40;;;;;;;;;3.00;1.75;;;;;;;;4977764;28;45371;-67
2024/02/03 13:02:06;;;;;;;;;1.00;1.00;;;;;;;;4980102;28;45350;-71
2024/02/03 13:04:31;;;;;;;;;2.75;1.25;;;;;;;;4966425;28;45301;-71
2024/02/03 13:06:57;;;;;;;;;2.00;2.00;;;;;;;;4978603;28;46284;-71
2024/02/03 13:09:22;;;;;;;;;3.00;1.00;;;;;;;;4979720;28;45417;-71
2024/02/03 13:11:48;;;;;;;;;0.50;0.50;;;;;;;;4979796;28;45434;-71
2024/02/03 13:14:13;;;;;;;;;1.00;1.00;;;;;;;;4972291;28;45336;-71
2024/02/03 13:16:38;;;;;;;;;0.33;0.33;;;;;;;;4979843;28;46298;-71
2024/02/03 13:19:03;;;;;;;;;0.00;0.00;;;;;;;;4979077;28;45238;-71
2024/02/03 13:21:28;;;;;;;;;1.00;0.33;;;;;;;;4979894;28;45421;-71
2024/02/03 13:23:54;;;;;;;;;1.67;1.00;;;;;;;;4979507;28;45391;-71
2024/02/03 13:26:20;;;;;;;;;0.00;0.00;;;;;;;;4979523;28;46240;-71
2024/02/03 13:28:46;;;;;;;;;1.00;0.75;;;;;;;;4978799;28;45290;-71
2024/02/03 13:31:11;;;;;;;;;0.33;0.00;;;;;;;;4979861;28;45373;-71
2024/02/03 13:33:36;;;;;;;;;0.00;0.00;;;;;;;;4970995;28;45452;-71
2024/02/03 13:36:01;;;;;;;;;2.50;0.00;;;;;;;;4979560;28;45673;-71
2024/02/03 13:38:27;;;;;;;;;1.00;1.00;;;;;;;;4979402;28;45484;-71
2024/02/03 13:40:52;;;;;;;;;0.00;0.00;;;;;;;;4979900;28;45394;-71
2024/02/03 13:43:17;;;;;;;;;0.00;0.00;;;;;;;;4979073;28;45373;-71
2024/02/03 13:45:42;;;;;;;;;1.67;1.67;;;;;;;;4978450;28;45439;-71
2024/02/03 13:48:07;;;;;;;;;1.00;1.00;;;;;;;;4979358;28;45435;-71
2024/02/03 13:50:33;;;;;;;;;2.67;0.00;;;;;;;;4979308;28;45571;-71
2024/02/03 13:52:58;;;;;;;;;1.00;0.00;;;;;;;;4979458;28;45470;-71
2024/02/03 13:55:23;;;;;;;;;1.00;1.00;;;;;;;;4979128;28;46011;-71
2024/02/03 13:57:49;;;;;;;;;2.00;2.00;;;;;;;;4977715;28;45410;-71
2024/02/03 14:00:14;;;;;;;;;1.00;1.00;;;;;;;;4979338;28;45621;-71
2024/02/03 14:02:39;;;;;;;;;1.75;1.75;;;;;;;;4975919;28;45559;-71
2024/02/03 14:05:05;;;;;;;;;1.00;1.00;;;;;;;;4968411;28;45520;-71
2024/02/03 14:07:30;;;;;;;;;1.00;1.00;;;;;;;;4978992;28;45357;-71
2024/02/03 14:09:55;;;;;;;;;0.00;0.00;;;;;;;;4978357;28;45487;-71
2024/02/03 14:12:20;;;;;;;;;1.00;1.00;;;;;;;;4978972;28;45332;-71
2024/02/03 14:14:45;;;;;;;;;0.00;0.00;;;;;;;;4978576;28;45985;-71
2024/02/03 14:17:11;;;;;;;;;0.00;0.00;;;;;;;;4978114;28;45479;-71
2024/02/03 14:19:36;;;;;;;;;2.00;0.75;;;;;;;;4964366;28;45325;-71
2024/02/03 14:22:01;;;;;;;;;0.25;0.25;;;;;;;;4982419;28;45528;-71
2024/02/03 14:24:26;;;;;;;;;2.00;0.67;;;;;;;;4982134;28;45452;-71